sensor_id;sensor_type;location;lat;lon;timestamp;pressure;altitude;pressure_sealevel;temperature;humidity
74232;BME280;62590;52.430;4.902;2022-11-18T00:01:24;99163.03;;;6.95;67.29
74232;BME280;62590;52.430;4.902;2022-11-18T00:03:50;99173.34;;;6.98;67.29
74232;BME280;62590;52.430;4.902;2022-11-18T00:06:21;99170.16;;;6.94;67.28
74232;BME280;62590;52.430;4.902;2022-11-18T00:08:47;99166.53;;;6.95;67.29
74232;BME280;62590;52.430;4.902;2022-11-18T00:11:15;99170.84;;;6.96;67.30
74232;BME280;62590;52.430;4.902;2022-11-18T00:13:59;99167.81;;;6.91;67.28
74232;BME280;62590;52.430;4.902;2022-11-18T00:19:21;99195.34;;;6.92;67.28
74232;BME280;62590;52.430;4.902;2022-11-18T00:21:48;99194.16;;;6.94;67.28
74232;BME280;62590;52.430;4.902;2022-11-18T00:24:13;99196.63;;;6.88;67.27
74232;BME280;62590;52.430;4.902;2022-11-18T00:26:39;99195.63;;;6.88;67.29
74232;BME280;62590;52.430;4.902;2022-11-18T00:29:04;99208.41;;;6.85;67.29
74232;BME280;62590;52.430;4.902;2022-11-18T00:31:30;99208.25;;;6.86;67.28
74232;BME280;62590;52.430;4.902;2022-11-18T00:33:55;99208.06;;;6.80;67.28
74232;BME280;62590;52.430;4.902;2022-11-18T00:36:20;99213.22;;;6.81;67.28
74232;BME280;62590;52.430;4.902;2022-11-18T00:38:46;99223.03;;;6.81;67.27
74232;BME280;62590;52.430;4.902;2022-11-18T00:41:12;99214.22;;;6.80;67.27
74232;BME280;62590;52.430;4.902;2022-11-18T00:43:39;99225.00;;;6.79;67.28
74232;BME280;62590;52.430;4.902;2022-11-18T00:46:06;99230.97;;;6.73;67.26
74232;BME280;62590;52.430;4.902;2022-11-18T00:48:32;99232.78;;;6.72;67.26
74232;BME280;62590;52.430;4.902;2022-11-18T00:51:04;99226.78;;;6.70;67.27
74232;BME280;62590;52.430;4.902;2022-11-18T00:53:30;99233.06;;;6.69;67.27
74232;BME280;62590;52.430;4.902;2022-11-18T00:55:55;99230.13;;;6.72;67.26
74232;BME280;62590;52.430;4.902;2022-11-18T00:58:21;99229.75;;;6.67;67.26
74232;BME280;62590;52.430;4.902;2022-11-18T01:00:50;99239.78;;;6.73;67.27
74232;BME280;62590;52.430;4.902;2022-11-18T01:03:16;99242.25;;;6.67;67.26
74232;BME280;62590;52.430;4.902;2022-11-18T01:05:41;99246.50;;;6.77;67.28
74232;BME280;62590;52.430;4.902;2022-11-18T01:08:08;99237.28;;;6.72;67.26
74232;BME280;62590;52.430;4.902;2022-11-18T01:10:34;99256.41;;;6.67;67.25
74232;BME280;62590;52.430;4.902;2022-11-18T01:13:01;99245.88;;;6.66;67.26
74232;BME280;62590;52.430;4.902;2022-11-18T01:15:56;99258.13;;;6.59;67.25
74232;BME280;62590;52.430;4.902;2022-11-18T01:18:24;99261.19;;;6.64;67.26
74232;BME280;62590;52.430;4.902;2022-11-18T01:20:50;99257.16;;;6.60;67.25
74232;BME280;62590;52.430;4.902;2022-11-18T01:23:18;99262.34;;;6.61;67.26
74232;BME280;62590;52.430;4.902;2022-11-18T01:25:45;99263.63;;;6.57;67.25
74232;BME280;62590;52.430;4.902;2022-11-18T01:28:11;99273.44;;;6.57;67.25
74232;BME280;62590;52.430;4.902;2022-11-18T01:30:39;99267.25;;;6.56;67.26
74232;BME280;62590;52.430;4.902;2022-11-18T01:33:05;99262.94;;;6.55;67.25
74232;BME280;62590;52.430;4.902;2022-11-18T01:35:39;99276.94;;;6.57;67.25
74232;BME280;62590;52.430;4.902;2022-11-18T01:38:05;99276.25;;;6.55;67.25
74232;BME280;62590;52.430;4.902;2022-11-18T01:40:32;99276.56;;;6.52;67.25
74232;BME280;62590;52.430;4.902;2022-11-18T01:42:57;99282.69;;;6.53;67.25
74232;BME280;62590;52.430;4.902;2022-11-18T01:50:35;99293.09;;;6.56;67.25
74232;BME280;62590;52.430;4.902;2022-11-18T01:53:08;99294.50;;;6.50;67.26
74232;BME280;62590;52.430;4.902;2022-11-18T01:55:40;99299.53;;;6.53;67.26
74232;BME280;62590;52.430;4.902;2022-11-18T01:58:12;99304.03;;;6.53;67.25
74232;BME280;62590;52.430;4.902;2022-11-18T02:00:39;99305.03;;;6.52;67.25
74232;BME280;62590;52.430;4.902;2022-11-18T02:03:05;99308.81;;;6.49;67.26
74232;BME280;62590;52.430;4.902;2022-11-18T02:05:32;99310.03;;;6.55;67.25
74232;BME280;62590;52.430;4.902;2022-11-18T02:07:59;99313.00;;;6.52;67.25
74232;BME280;62590;52.430;4.902;2022-11-18T02:10:25;99318.50;;;6.50;67.26
74232;BME280;62590;52.430;4.902;2022-11-18T02:12:52;99317.66;;;6.50;67.25
74232;BME280;62590;52.430;4.902;2022-11-18T02:15:42;99332.78;;;6.49;67.25
74232;BME280;62590;52.430;4.902;2022-11-18T02:20:40;99329.44;;;6.47;67.25
74232;BME280;62590;52.430;4.902;2022-11-18T02:29:08;99335.59;;;6.48;67.25
74232;BME280;62590;52.430;4.902;2022-11-18T02:34:50;99339.84;;;6.41;67.25
74232;BME280;62590;52.430;4.902;2022-11-18T02:37:21;99336.50;;;6.39;67.24
74232;BME280;62590;52.430;4.902;2022-11-18T02:39:56;99345.75;;;6.35;67.25
74232;BME280;62590;52.430;4.902;2022-11-18T02:42:23;99350.78;;;6.38;67.24
74232;BME280;62590;52.430;4.902;2022-11-18T02:44:54;99343.94;;;6.35;67.25
74232;BME280;62590;52.430;4.902;2022-11-18T02:47:22;99345.44;;;6.38;67.24
74232;BME280;62590;52.430;4.902;2022-11-18T02:49:56;99349.97;;;6.37;67.25
74232;BME280;62590;52.430;4.902;2022-11-18T02:52:23;99358.19;;;6.44;67.24
74232;BME280;62590;52.430;4.902;2022-11-18T02:54:51;99358.66;;;6.39;67.24
74232;BME280;62590;52.430;4.902;2022-11-18T02:57:18;99362.59;;;6.35;67.25
74232;BME280;62590;52.430;4.902;2022-11-18T02:59:45;99360.47;;;6.39;67.23
74232;BME280;62590;52.430;4.902;2022-11-18T03:02:18;99361.75;;;6.35;67.22
74232;BME280;62590;52.430;4.902;2022-11-18T03:04:45;99365.25;;;6.35;67.23
74232;BME280;62590;52.430;4.902;2022-11-18T03:07:20;99370.56;;;6.35;67.25
74232;BME280;62590;52.430;4.902;2022-11-18T03:09:50;99359.94;;;6.35;67.23
74232;BME280;62590;52.430;4.902;2022-11-18T03:15:10;99372.53;;;6.33;67.24
74232;BME280;62590;52.430;4.902;2022-11-18T03:17:46;99377.03;;;6.33;67.24
74232;BME280;62590;52.430;4.902;2022-11-18T03:20:35;99377.88;;;6.33;67.24
74232;BME280;62590;52.430;4.902;2022-11-18T03:23:18;99375.63;;;6.29;67.25
74232;BME280;62590;52.430;4.902;2022-11-18T03:25:53;99391.75;;;6.27;67.23
74232;BME280;62590;52.430;4.902;2022-11-18T03:31:23;99396.16;;;6.19;67.23
74232;BME280;62590;52.430;4.902;2022-11-18T03:34:07;99401.31;;;6.20;67.22
74232;BME280;62590;52.430;4.902;2022-11-18T03:36:37;99396.53;;;6.24;67.23
74232;BME280;62590;52.430;4.902;2022-11-18T03:39:06;99406.50;;;6.22;67.24
74232;BME280;62590;52.430;4.902;2022-11-18T03:41:50;99398.97;;;6.17;67.22
74232;BME280;62590;52.430;4.902;2022-11-18T03:44:20;99407.22;;;6.14;67.22
74232;BME280;62590;52.430;4.902;2022-11-18T03:46:51;99408.75;;;6.17;67.23
74232;BME280;62590;52.430;4.902;2022-11-18T03:49:27;99406.97;;;6.08;67.22
74232;BME280;62590;52.430;4.902;2022-11-18T03:51:57;99413.00;;;6.10;67.23
74232;BME280;62590;52.430;4.902;2022-11-18T03:54:30;99413.09;;;6.08;67.21
74232;BME280;62590;52.430;4.902;2022-11-18T03:57:08;99412.56;;;6.05;67.22
74232;BME280;62590;52.430;4.902;2022-11-18T03:59:47;99409.34;;;6.11;67.22
74232;BME280;62590;52.430;4.902;2022-11-18T04:02:20;99414.94;;;6.17;67.22
74232;BME280;62590;52.430;4.902;2022-11-18T04:04:49;99422.09;;;6.17;67.22
74232;BME280;62590;52.430;4.902;2022-11-18T04:09:46;99430.06;;;6.17;67.23
74232;BME280;62590;52.430;4.902;2022-11-18T04:12:17;99428.97;;;6.10;67.23
74232;BME280;62590;52.430;4.902;2022-11-18T04:14:44;99435.41;;;6.17;67.22
74232;BME280;62590;52.430;4.902;2022-11-18T04:17:16;99431.03;;;6.16;67.22
74232;BME280;62590;52.430;4.902;2022-11-18T04:19:44;99440.72;;;6.17;67.23
74232;BME280;62590;52.430;4.902;2022-11-18T04:22:09;99448.97;;;6.14;67.22
74232;BME280;62590;52.430;4.902;2022-11-18T04:24:35;99451.94;;;6.11;67.22
74232;BME280;62590;52.430;4.902;2022-11-18T04:27:02;99447.03;;;6.06;67.22
74232;BME280;62590;52.430;4.902;2022-11-18T04:29:29;99454.19;;;6.15;67.23
74232;BME280;62590;52.430;4.902;2022-11-18T04:31:55;99456.69;;;6.17;67.23
74232;BME280;62590;52.430;4.902;2022-11-18T04:34:20;99472.13;;;6.13;67.22
74232;BME280;62590;52.430;4.902;2022-11-18T04:36:45;99464.94;;;6.14;67.21
74232;BME280;62590;52.430;4.902;2022-11-18T04:39:11;99468.06;;;6.19;67.23
74232;BME280;62590;52.430;4.902;2022-11-18T04:41:36;99472.69;;;6.17;67.23
74232;BME280;62590;52.430;4.902;2022-11-18T04:46:50;99485.16;;;6.16;67.23
74232;BME280;62590;52.430;4.902;2022-11-18T04:49:15;99485.44;;;6.13;67.22
74232;BME280;62590;52.430;4.902;2022-11-18T04:51:42;99491.72;;;6.12;67.22
74232;BME280;62590;52.430;4.902;2022-11-18T04:54:08;99492.28;;;6.16;67.23
74232;BME280;62590;52.430;4.902;2022-11-18T04:56:34;99493.97;;;6.17;67.22
74232;BME280;62590;52.430;4.902;2022-11-18T04:59:00;99497.91;;;6.13;67.22
74232;BME280;62590;52.430;4.902;2022-11-18T05:01:27;99500.28;;;6.16;67.23
74232;BME280;62590;52.430;4.902;2022-11-18T05:03:52;99503.63;;;6.18;67.23
74232;BME280;62590;52.430;4.902;2022-11-18T05:06:18;99506.59;;;6.15;67.21
74232;BME280;62590;52.430;4.902;2022-11-18T05:08:43;99507.44;;;6.15;67.23
74232;BME280;62590;52.430;4.902;2022-11-18T05:11:09;99508.56;;;6.13;67.22
74232;BME280;62590;52.430;4.902;2022-11-18T05:13:53;99511.63;;;6.18;67.23
74232;BME280;62590;52.430;4.902;2022-11-18T05:16:18;99513.31;;;6.19;67.22
74232;BME280;62590;52.430;4.902;2022-11-18T05:18:43;99510.22;;;6.14;67.21
74232;BME280;62590;52.430;4.902;2022-11-18T05:21:09;99520.19;;;6.12;67.23
74232;BME280;62590;52.430;4.902;2022-11-18T05:23:35;99514.75;;;6.13;67.23
74232;BME280;62590;52.430;4.902;2022-11-18T05:26:05;99514.03;;;6.11;67.23
74232;BME280;62590;52.430;4.902;2022-11-18T05:28:31;99529.56;;;6.16;67.23
74232;BME280;62590;52.430;4.902;2022-11-18T05:30:57;99517.66;;;6.20;67.23
74232;BME280;62590;52.430;4.902;2022-11-18T05:33:22;99522.72;;;6.23;67.24
74232;BME280;62590;52.430;4.902;2022-11-18T05:35:47;99525.38;;;6.23;67.24
74232;BME280;62590;52.430;4.902;2022-11-18T05:38:13;99534.91;;;6.25;67.23
74232;BME280;62590;52.430;4.902;2022-11-18T05:40:41;99526.91;;;6.25;67.23
74232;BME280;62590;52.430;4.902;2022-11-18T05:43:08;99517.94;;;6.17;67.23
74232;BME280;62590;52.430;4.902;2022-11-18T05:45:37;99543.31;;;6.30;67.24
74232;BME280;62590;52.430;4.902;2022-11-18T05:48:03;99543.03;;;6.33;67.23
74232;BME280;62590;52.430;4.902;2022-11-18T05:50:31;99541.22;;;6.34;67.23
74232;BME280;62590;52.430;4.902;2022-11-18T05:52:56;99539.25;;;6.36;67.24
74232;BME280;62590;52.430;4.902;2022-11-18T05:55:25;99537.97;;;6.40;67.24
74232;BME280;62590;52.430;4.902;2022-11-18T05:57:52;99547.09;;;6.37;67.24
74232;BME280;62590;52.430;4.902;2022-11-18T06:00:17;99548.75;;;6.38;67.23
74232;BME280;62590;52.430;4.902;2022-11-18T06:02:44;99548.91;;;6.37;67.24
74232;BME280;62590;52.430;4.902;2022-11-18T06:05:12;99554.09;;;6.38;67.24
74232;BME280;62590;52.430;4.902;2022-11-18T06:07:40;99553.84;;;6.41;67.23
74232;BME280;62590;52.430;4.902;2022-11-18T06:10:09;99545.25;;;6.38;67.24
74232;BME280;62590;52.430;4.902;2022-11-18T06:12:39;99558.16;;;6.42;67.25
74232;BME280;62590;52.430;4.902;2022-11-18T06:15:19;99557.06;;;6.45;67.25
74232;BME280;62590;52.430;4.902;2022-11-18T06:17:55;99568.41;;;6.47;67.24
74232;BME280;62590;52.430;4.902;2022-11-18T06:20:21;99571.78;;;6.49;67.25
74232;BME280;62590;52.430;4.902;2022-11-18T06:22:48;99576.25;;;6.48;67.25
74232;BME280;62590;52.430;4.902;2022-11-18T06:25:14;99581.59;;;6.48;67.25
74232;BME280;62590;52.430;4.902;2022-11-18T06:27:40;99581.59;;;6.48;67.25
74232;BME280;62590;52.430;4.902;2022-11-18T06:30:07;99583.41;;;6.48;67.25
74232;BME280;62590;52.430;4.902;2022-11-18T06:32:32;99587.88;;;6.47;67.24
74232;BME280;62590;52.430;4.902;2022-11-18T06:34:58;99594.06;;;6.48;67.25
74232;BME280;62590;52.430;4.902;2022-11-18T06:37:23;99593.91;;;6.49;67.25
74232;BME280;62590;52.430;4.902;2022-11-18T06:39:48;99599.78;;;6.53;67.25
74232;BME280;62590;52.430;4.902;2022-11-18T06:42:14;99607.22;;;6.49;67.25
74232;BME280;62590;52.430;4.902;2022-11-18T06:44:59;99604.41;;;6.51;67.25
74232;BME280;62590;52.430;4.902;2022-11-18T06:47:26;99600.09;;;6.50;67.24
74232;BME280;62590;52.430;4.902;2022-11-18T06:49:51;99616.22;;;6.48;67.25
74232;BME280;62590;52.430;4.902;2022-11-18T06:52:16;99612.56;;;6.49;67.24
74232;BME280;62590;52.430;4.902;2022-11-18T06:54:42;99620.28;;;6.52;67.25
74232;BME280;62590;52.430;4.902;2022-11-18T06:57:07;99625.88;;;6.49;67.25
74232;BME280;62590;52.430;4.902;2022-11-18T06:59:32;99636.69;;;6.48;67.25
74232;BME280;62590;52.430;4.902;2022-11-18T07:01:58;99638.38;;;6.49;67.24
74232;BME280;62590;52.430;4.902;2022-11-18T07:04:23;99640.06;;;6.50;67.25
74232;BME280;62590;52.430;4.902;2022-11-18T07:06:48;99644.53;;;6.49;67.25
74232;BME280;62590;52.430;4.902;2022-11-18T07:09:14;99649.03;;;6.49;67.25
74232;BME280;62590;52.430;4.902;2022-11-18T07:11:39;99647.91;;;6.51;67.24
74232;BME280;62590;52.430;4.902;2022-11-18T07:14:06;99655.75;;;6.53;67.26
74232;BME280;62590;52.430;4.902;2022-11-18T07:16:33;99658.56;;;6.51;67.25
74232;BME280;62590;52.430;4.902;2022-11-18T07:18:58;99661.09;;;6.53;67.25
74232;BME280;62590;52.430;4.902;2022-11-18T07:21:26;99672.59;;;6.53;67.25
74232;BME280;62590;52.430;4.902;2022-11-18T07:23:52;99671.75;;;6.53;67.25
74232;BME280;62590;52.430;4.902;2022-11-18T07:26:18;99675.81;;;6.47;67.24
74232;BME280;62590;52.430;4.902;2022-11-18T07:28:44;99688.88;;;6.50;67.25
74232;BME280;62590;52.430;4.902;2022-11-18T07:31:12;99684.66;;;6.48;67.25
74232;BME280;62590;52.430;4.902;2022-11-18T07:33:39;99688.59;;;6.53;67.25
74232;BME280;62590;52.430;4.902;2022-11-18T07:36:07;99694.75;;;6.54;67.24
74232;BME280;62590;52.430;4.902;2022-11-18T07:38:34;99698.28;;;6.54;67.25
74232;BME280;62590;52.430;4.902;2022-11-18T07:43:28;99704.72;;;6.52;67.25
74232;BME280;62590;52.430;4.902;2022-11-18T07:45:53;99706.38;;;6.53;67.25
74232;BME280;62590;52.430;4.902;2022-11-18T07:48:19;99707.38;;;6.52;67.25
74232;BME280;62590;52.430;4.902;2022-11-18T07:50:44;99711.72;;;6.53;67.25
74232;BME280;62590;52.430;4.902;2022-11-18T07:53:09;99712.84;;;6.50;67.25
74232;BME280;62590;52.430;4.902;2022-11-18T07:55:35;99724.78;;;6.56;67.25
74232;BME280;62590;52.430;4.902;2022-11-18T07:58:00;99718.03;;;6.52;67.25
74232;BME280;62590;52.430;4.902;2022-11-18T08:00:25;99724.34;;;6.51;67.24
74232;BME280;62590;52.430;4.902;2022-11-18T08:02:51;99728.00;;;6.50;67.25
74232;BME280;62590;52.430;4.902;2022-11-18T08:05:16;99734.03;;;6.52;67.25
74232;BME280;62590;52.430;4.902;2022-11-18T08:07:41;99732.22;;;6.52;67.25
74232;BME280;62590;52.430;4.902;2022-11-18T08:10:07;99744.69;;;6.52;67.24
74232;BME280;62590;52.430;4.902;2022-11-18T08:12:33;99740.22;;;6.52;67.25
74232;BME280;62590;52.430;4.902;2022-11-18T08:14:58;99743.69;;;6.53;67.25
74232;BME280;62590;52.430;4.902;2022-11-18T08:17:23;99752.53;;;6.53;67.26
74232;BME280;62590;52.430;4.902;2022-11-18T08:19:49;99740.06;;;6.54;67.25
74232;BME280;62590;52.430;4.902;2022-11-18T08:22:14;99748.91;;;6.54;67.24
74232;BME280;62590;52.430;4.902;2022-11-18T08:24:43;99752.25;;;6.56;67.26
74232;BME280;62590;52.430;4.902;2022-11-18T08:27:09;99755.78;;;6.57;67.25
74232;BME280;62590;52.430;4.902;2022-11-18T08:29:34;99757.59;;;6.56;67.24
74232;BME280;62590;52.430;4.902;2022-11-18T08:31:59;99763.63;;;6.58;67.26
74232;BME280;62590;52.430;4.902;2022-11-18T08:34:25;99768.94;;;6.58;67.26
74232;BME280;62590;52.430;4.902;2022-11-18T08:36:50;99765.56;;;6.56;67.26
74232;BME280;62590;52.430;4.902;2022-11-18T08:39:15;99768.13;;;6.58;67.26
74232;BME280;62590;52.430;4.902;2022-11-18T08:41:42;99767.28;;;6.57;67.25
74232;BME280;62590;52.430;4.902;2022-11-18T08:44:13;99769.25;;;6.55;67.25
74232;BME280;62590;52.430;4.902;2022-11-18T08:46:40;99771.63;;;6.58;67.25
74232;BME280;62590;52.430;4.902;2022-11-18T08:49:05;99775.13;;;6.59;67.25
74232;BME280;62590;52.430;4.902;2022-11-18T08:51:30;99775.13;;;6.59;67.25
74232;BME280;62590;52.430;4.902;2022-11-18T08:53:56;99780.47;;;6.59;67.25
74232;BME280;62590;52.430;4.902;2022-11-18T08:56:22;99782.16;;;6.60;67.25
74232;BME280;62590;52.430;4.902;2022-11-18T08:58:48;99786.50;;;6.61;67.25
74232;BME280;62590;52.430;4.902;2022-11-18T09:01:14;99791.81;;;6.61;67.27
74232;BME280;62590;52.430;4.902;2022-11-18T09:03:39;99802.19;;;6.64;67.26
74232;BME280;62590;52.430;4.902;2022-11-18T09:06:12;99796.75;;;6.65;67.26
74232;BME280;62590;52.430;4.902;2022-11-18T09:08:38;99802.66;;;6.69;67.27
74232;BME280;62590;52.430;4.902;2022-11-18T09:11:08;99808.94;;;6.68;67.25
74232;BME280;62590;52.430;4.902;2022-11-18T09:13:34;99814.75;;;6.73;67.26
74232;BME280;62590;52.430;4.902;2022-11-18T09:16:00;99812.78;;;6.75;67.27
74232;BME280;62590;52.430;4.902;2022-11-18T09:18:26;99816.00;;;6.78;67.27
74232;BME280;62590;52.430;4.902;2022-11-18T09:20:59;99821.59;;;6.75;67.27
74232;BME280;62590;52.430;4.902;2022-11-18T09:23:25;99817.66;;;6.70;67.26
74232;BME280;62590;52.430;4.902;2022-11-18T09:26:01;99824.41;;;6.74;67.27
74232;BME280;62590;52.430;4.902;2022-11-18T09:28:28;99818.94;;;6.85;67.26
74232;BME280;62590;52.430;4.902;2022-11-18T09:30:53;99827.81;;;6.85;67.28
74232;BME280;62590;52.430;4.902;2022-11-18T09:33:19;99826.41;;;6.91;67.28
74232;BME280;62590;52.430;4.902;2022-11-18T09:35:45;99830.31;;;6.87;67.28
74232;BME280;62590;52.430;4.902;2022-11-18T09:38:10;99837.63;;;6.85;67.28
74232;BME280;62590;52.430;4.902;2022-11-18T09:40:46;99832.97;;;6.77;67.27
74232;BME280;62590;52.430;4.902;2022-11-18T09:43:48;99834.25;;;6.83;67.28
74232;BME280;62590;52.430;4.902;2022-11-18T09:49:21;99853.94;;;7.11;67.30
74232;BME280;62590;52.430;4.902;2022-11-18T09:51:50;99855.47;;;7.04;67.30
74232;BME280;62590;52.430;4.902;2022-11-18T09:54:27;99851.13;;;7.03;67.30
74232;BME280;62590;52.430;4.902;2022-11-18T09:56:54;99852.97;;;7.21;67.30
74232;BME280;62590;52.430;4.902;2022-11-18T09:59:24;99860.81;;;7.13;67.29
74232;BME280;62590;52.430;4.902;2022-11-18T10:01:51;99861.78;;;7.22;67.29
74232;BME280;62590;52.430;4.902;2022-11-18T10:04:20;99864.91;;;7.27;67.31
74232;BME280;62590;52.430;4.902;2022-11-18T10:06:47;99871.38;;;7.34;67.30
74232;BME280;62590;52.430;4.902;2022-11-18T10:09:36;99865.63;;;7.38;67.32
74232;BME280;62590;52.430;4.902;2022-11-18T10:12:31;99875.13;;;7.22;67.31
74232;BME280;62590;52.430;4.902;2022-11-18T10:18:00;99880.50;;;7.31;67.31
74232;BME280;62590;52.430;4.902;2022-11-18T10:20:52;99892.31;;;7.38;67.32
74232;BME280;62590;52.430;4.902;2022-11-18T10:23:25;99884.28;;;7.29;67.31
74232;BME280;62590;52.430;4.902;2022-11-18T10:25:53;99888.66;;;7.39;67.31
74232;BME280;62590;52.430;4.902;2022-11-18T10:28:23;99887.53;;;7.51;67.31
74232;BME280;62590;52.430;4.902;2022-11-18T10:30:48;99908.88;;;7.32;67.31
74232;BME280;62590;52.430;4.902;2022-11-18T10:35:48;99906.16;;;7.13;67.29
74232;BME280;62590;52.430;4.902;2022-11-18T10:40:49;99910.22;;;7.08;67.29
74232;BME280;62590;52.430;4.902;2022-11-18T10:43:47;99912.75;;;7.09;67.29
74232;BME280;62590;52.430;4.902;2022-11-18T10:48:42;99917.13;;;7.10;67.29
74232;BME280;62590;52.430;4.902;2022-11-18T10:51:20;99902.50;;;7.14;67.29
74232;BME280;62590;52.430;4.902;2022-11-18T10:53:46;99906.16;;;7.13;67.29
74232;BME280;62590;52.430;4.902;2022-11-18T10:56:13;99915.88;;;7.24;67.31
74232;BME280;62590;52.430;4.902;2022-11-18T10:58:42;99904.09;;;7.26;67.29
74232;BME280;62590;52.430;4.902;2022-11-18T11:01:24;99904.94;;;7.27;67.30
74232;BME280;62590;52.430;4.902;2022-11-18T11:06:37;99910.69;;;7.41;67.32
74232;BME280;62590;52.430;4.902;2022-11-18T11:11:39;99912.38;;;7.42;67.32
74232;BME280;62590;52.430;4.902;2022-11-18T11:14:18;99914.94;;;7.44;67.33
74232;BME280;62590;52.430;4.902;2022-11-18T11:16:50;99911.69;;;7.50;67.32
74232;BME280;62590;52.430;4.902;2022-11-18T11:19:19;99912.94;;;7.55;67.32
74232;BME280;62590;52.430;4.902;2022-11-18T11:21:47;99912.41;;;7.61;67.34
74232;BME280;62590;52.430;4.902;2022-11-18T11:24:12;99920.97;;;7.65;67.33
74232;BME280;62590;52.430;4.902;2022-11-18T11:26:50;99920.13;;;7.64;67.34
74232;BME280;62590;52.430;4.902;2022-11-18T11:34:39;99920.56;;;7.69;67.34
74232;BME280;62590;52.430;4.902;2022-11-18T11:40:09;99928.41;;;7.90;67.36
74232;BME280;62590;52.430;4.902;2022-11-18T11:46:01;99932.44;;;8.32;67.38
74232;BME280;62590;52.430;4.902;2022-11-18T11:51:26;99941.44;;;8.22;67.38
74232;BME280;62590;52.430;4.902;2022-11-18T11:54:07;99944.38;;;8.19;67.37
74232;BME280;62590;52.430;4.902;2022-11-18T11:57:00;99946.81;;;8.12;67.37
74232;BME280;62590;52.430;4.902;2022-11-18T11:59:38;99945.84;;;8.04;67.37
74232;BME280;62590;52.430;4.902;2022-11-18T12:05:19;99952.16;;;8.03;67.36
74232;BME280;62590;52.430;4.902;2022-11-18T12:07:57;99958.19;;;7.95;67.37
74232;BME280;62590;52.430;4.902;2022-11-18T12:10:50;99954.13;;;7.91;67.36
74232;BME280;62590;52.430;4.902;2022-11-18T12:21:01;99970.44;;;7.88;67.36
74232;BME280;62590;52.430;4.902;2022-11-18T12:23:28;99970.28;;;7.90;67.36
74232;BME280;62590;52.430;4.902;2022-11-18T12:33:46;99974.78;;;7.99;67.36
74232;BME280;62590;52.430;4.902;2022-11-18T12:36:32;99980.44;;;8.05;67.36
74232;BME280;62590;52.430;4.902;2022-11-18T12:44:28;99976.19;;;8.12;67.37
74232;BME280;62590;52.430;4.902;2022-11-18T12:46:55;99989.00;;;8.09;67.38
74232;BME280;62590;52.430;4.902;2022-11-18T12:51:54;99983.25;;;8.04;67.37
74232;BME280;62590;52.430;4.902;2022-11-18T12:56:57;99986.19;;;8.01;67.37
74232;BME280;62590;52.430;4.902;2022-11-18T12:59:35;99981.94;;;7.98;67.36
74232;BME280;62590;52.430;4.902;2022-11-18T13:02:18;99988.13;;;7.89;67.36
74232;BME280;62590;52.430;4.902;2022-11-18T13:05:01;99982.78;;;7.89;67.37
74232;BME280;62590;52.430;4.902;2022-11-18T13:07:27;99991.50;;;7.81;67.36
74232;BME280;62590;52.430;4.902;2022-11-18T13:10:21;99998.97;;;7.88;67.34
74232;BME280;62590;52.430;4.902;2022-11-18T13:12:47;100001.22;;;7.92;67.36
74232;BME280;62590;52.430;4.902;2022-11-18T13:15:13;100002.75;;;7.95;67.37
74232;BME280;62590;52.430;4.902;2022-11-18T13:18:26;100003.19;;;8.00;67.36
74232;BME280;62590;52.430;4.902;2022-11-18T13:20:56;100005.31;;;7.96;67.36
74232;BME280;62590;52.430;4.902;2022-11-18T13:23:27;100002.06;;;8.02;67.36
74232;BME280;62590;52.430;4.902;2022-11-18T13:26:18;100010.22;;;8.01;67.37
74232;BME280;62590;52.430;4.902;2022-11-18T13:34:22;100010.22;;;8.01;67.37
74232;BME280;62590;52.430;4.902;2022-11-18T13:36:51;100021.75;;;8.01;67.37
74232;BME280;62590;52.430;4.902;2022-11-18T13:39:29;100026.53;;;7.98;67.36
74232;BME280;62590;52.430;4.902;2022-11-18T13:44:24;100028.66;;;8.04;67.36
74232;BME280;62590;52.430;4.902;2022-11-18T13:46:54;100033.84;;;8.05;67.37
74232;BME280;62590;52.430;4.902;2022-11-18T13:49:23;100035.38;;;8.08;67.38
74232;BME280;62590;52.430;4.902;2022-11-18T13:51:52;100031.19;;;8.05;67.37
74232;BME280;62590;52.430;4.902;2022-11-18T13:54:23;100029.34;;;8.06;67.37
74232;BME280;62590;52.430;4.902;2022-11-18T13:56:49;100031.88;;;8.07;67.36
74232;BME280;62590;52.430;4.902;2022-11-18T13:59:18;100035.53;;;8.06;67.36
74232;BME280;62590;52.430;4.902;2022-11-18T14:01:46;100034.69;;;8.15;67.38
74232;BME280;62590;52.430;4.902;2022-11-18T14:04:20;100039.47;;;8.12;67.36
74232;BME280;62590;52.430;4.902;2022-11-18T14:06:46;100039.47;;;8.12;67.38
74232;BME280;62590;52.430;4.902;2022-11-18T14:11:45;100040.31;;;8.12;67.37
74232;BME280;62590;52.430;4.902;2022-11-18T14:14:33;100045.25;;;8.07;67.38
74232;BME280;62590;52.430;4.902;2022-11-18T14:19:45;100047.22;;;8.05;67.36
74232;BME280;62590;52.430;4.902;2022-11-18T14:22:15;100049.19;;;8.03;67.37
74232;BME280;62590;52.430;4.902;2022-11-18T14:24:41;100048.19;;;8.04;67.37
74232;BME280;62590;52.430;4.902;2022-11-18T14:27:45;100055.38;;;8.04;67.37
74232;BME280;62590;52.430;4.902;2022-11-18T14:30:34;100052.56;;;8.05;67.37
74232;BME280;62590;52.430;4.902;2022-11-18T14:35:42;100066.31;;;8.01;67.37
74232;BME280;62590;52.430;4.902;2022-11-18T14:38:16;100068.13;;;8.00;67.37
74232;BME280;62590;52.430;4.902;2022-11-18T14:40:43;100076.03;;;8.02;67.38
74232;BME280;62590;52.430;4.902;2022-11-18T14:43:11;100076.75;;;8.04;67.37
74232;BME280;62590;52.430;4.902;2022-11-18T14:45:38;100075.03;;;8.03;67.36
74232;BME280;62590;52.430;4.902;2022-11-18T14:48:05;100083.19;;;8.01;67.37
74232;BME280;62590;52.430;4.902;2022-11-18T14:50:31;100087.69;;;8.01;67.37
74232;BME280;62590;52.430;4.902;2022-11-18T14:52:57;100086.84;;;8.00;67.37
74232;BME280;62590;52.430;4.902;2022-11-18T14:55:22;100089.50;;;8.00;67.37
74232;BME280;62590;52.430;4.902;2022-11-18T14:57:47;100092.31;;;7.99;67.36
74232;BME280;62590;52.430;4.902;2022-11-18T15:00:14;100087.97;;;7.98;67.36
74232;BME280;62590;52.430;4.902;2022-11-18T15:02:40;100103.88;;;7.99;67.36
74232;BME280;62590;52.430;4.902;2022-11-18T15:05:06;100104.81;;;7.98;67.36
74232;BME280;62590;52.430;4.902;2022-11-18T15:07:31;100103.44;;;7.94;67.37
74232;BME280;62590;52.430;4.902;2022-11-18T15:09:56;100106.50;;;7.90;67.36
74232;BME280;62590;52.430;4.902;2022-11-18T15:12:22;100109.03;;;7.91;67.35
74232;BME280;62590;52.430;4.902;2022-11-18T15:14:47;100111.84;;;7.90;67.36